BEL26C LFBO-EBBR
Flight info
| Callsign | BEL26C |
|---|---|
| Flight time | 1h 19m |
| Altitude | 34000 |
| Route | FISTO DCT PERIG DCT ADABI DCT BOKNO UN858 VANAD UN874 BAMES UT191 PODEM UN873 BAZOS DCT BELDI DCT VEKIN Z173 ARVOL |
| Aircraft | A319/M-SDE3FGHIRWY/LB1 |
Departure
| Time | 2026-05-05 18:11 |
|---|---|
| Airport | Toulouse-Blagnac Airport (LFBO) |
Arrival
| Time | 2026-05-05 19:31 |
|---|---|
| Airport | Brussels Airport (EBBR) |
| Time | Latitude | Longitude | Altitude | Speed | Heading |
|---|---|---|---|---|---|
| 2026-05-05 17:38 | 43.62977 | 1.37317 | 503 ft | 0 kts | 45° |
| 2026-05-05 18:01 | 43.62971 | 1.37308 | 502 ft | 4 kts | 50° |
| 2026-05-05 18:01 | 43.62956 | 1.37278 | 502 ft | 4 kts | 69° |
| 2026-05-05 18:01 | 43.62950 | 1.37242 | 502 ft | 4 kts | 89° |
| 2026-05-05 18:01 | 43.62953 | 1.37206 | 502 ft | 4 kts | 115° |
| 2026-05-05 18:02 | 43.62961 | 1.37188 | 502 ft | 0 kts | 142° |
| 2026-05-05 18:05 | 43.62959 | 1.37191 | 502 ft | 1 kts | 142° |
| 2026-05-05 18:05 | 43.62950 | 1.37200 | 502 ft | 4 kts | 140° |
| 2026-05-05 18:05 | 43.62917 | 1.37238 | 502 ft | 9 kts | 141° |
| 2026-05-05 18:06 | 43.62859 | 1.37301 | 503 ft | 11 kts | 141° |
| 2026-05-05 18:06 | 43.62817 | 1.37347 | 503 ft | 12 kts | 142° |
| 2026-05-05 18:06 | 43.62728 | 1.37437 | 503 ft | 11 kts | 143° |
| 2026-05-05 18:06 | 43.62661 | 1.37482 | 503 ft | 11 kts | 182° |
| 2026-05-05 18:07 | 43.62599 | 1.37416 | 503 ft | 12 kts | 232° |
| 2026-05-05 18:07 | 43.62538 | 1.37346 | 503 ft | 12 kts | 184° |
| 2026-05-05 18:07 | 43.62464 | 1.37403 | 503 ft | 13 kts | 141° |
| 2026-05-05 18:07 | 43.62392 | 1.37478 | 504 ft | 13 kts | 144° |
| 2026-05-05 18:08 | 43.62318 | 1.37554 | 504 ft | 13 kts | 144° |
| 2026-05-05 18:08 | 43.62241 | 1.37631 | 504 ft | 14 kts | 143° |
| 2026-05-05 18:08 | 43.62162 | 1.37713 | 504 ft | 14 kts | 142° |
| 2026-05-05 18:08 | 43.62081 | 1.37800 | 505 ft | 15 kts | 142° |
| 2026-05-05 18:09 | 43.61997 | 1.37888 | 504 ft | 16 kts | 143° |
| 2026-05-05 18:09 | 43.61908 | 1.37981 | 504 ft | 16 kts | 143° |
| 2026-05-05 18:09 | 43.61814 | 1.38077 | 504 ft | 17 kts | 143° |
| 2026-05-05 18:09 | 43.61722 | 1.38167 | 503 ft | 14 kts | 155° |
| 2026-05-05 18:10 | 43.61640 | 1.38134 | 504 ft | 5 kts | 231° |
| 2026-05-05 18:10 | 43.61617 | 1.38093 | 504 ft | 6 kts | 232° |
| 2026-05-05 18:10 | 43.61582 | 1.38023 | 503 ft | 11 kts | 249° |
| 2026-05-05 18:10 | 43.61629 | 1.37948 | 503 ft | 12 kts | 322° |
| 2026-05-05 18:11 | 43.61759 | 1.37814 | 504 ft | 51 kts | 323° |
| 2026-05-05 18:11 | 43.62248 | 1.37295 | 502 ft | 122 kts | 323° |
| 2026-05-05 18:11 | 43.63074 | 1.36452 | 574 ft | 166 kts | 323° |
| 2026-05-05 18:11 | 43.64007 | 1.35519 | 1246 ft | 166 kts | 319° |
| 2026-05-05 18:12 | 43.64914 | 1.34536 | 2049 ft | 165 kts | 318° |
| 2026-05-05 18:12 | 43.65829 | 1.33516 | 2607 ft | 177 kts | 318° |
| 2026-05-05 18:12 | 43.66846 | 1.32375 | 2979 ft | 200 kts | 319° |
| 2026-05-05 18:12 | 43.67986 | 1.31102 | 3353 ft | 223 kts | 319° |
| 2026-05-05 18:13 | 43.69262 | 1.29684 | 3876 ft | 246 kts | 319° |
| 2026-05-05 18:13 | 43.70623 | 1.28180 | 4751 ft | 254 kts | 320° |
| 2026-05-05 18:13 | 43.72101 | 1.26805 | 5719 ft | 262 kts | 335° |
| 2026-05-05 18:13 | 43.73886 | 1.26115 | 6655 ft | 269 kts | 344° |
| 2026-05-05 18:14 | 43.75723 | 1.25514 | 7577 ft | 274 kts | 344° |
| 2026-05-05 18:14 | 43.77620 | 1.25044 | 8495 ft | 281 kts | 354° |
| 2026-05-05 18:14 | 43.79600 | 1.24977 | 9411 ft | 287 kts | 356° |
| 2026-05-05 18:14 | 43.81616 | 1.24921 | 10237 ft | 295 kts | 356° |
| 2026-05-05 18:15 | 43.83753 | 1.24853 | 10588 ft | 319 kts | 356° |
| 2026-05-05 18:15 | 43.86049 | 1.24772 | 11014 ft | 338 kts | 356° |
| 2026-05-05 18:15 | 43.88429 | 1.24689 | 11746 ft | 345 kts | 356° |
| 2026-05-05 18:15 | 43.90847 | 1.24610 | 12540 ft | 350 kts | 356° |
| 2026-05-05 18:16 | 43.93301 | 1.24528 | 13343 ft | 355 kts | 356° |
| 2026-05-05 18:16 | 43.95785 | 1.24444 | 14087 ft | 360 kts | 356° |
| 2026-05-05 18:16 | 43.98297 | 1.24357 | 14783 ft | 364 kts | 356° |
| 2026-05-05 18:16 | 44.00856 | 1.24269 | 15482 ft | 369 kts | 356° |
| 2026-05-05 18:17 | 44.03440 | 1.24182 | 16178 ft | 374 kts | 356° |
| 2026-05-05 18:17 | 44.06054 | 1.24096 | 16873 ft | 378 kts | 356° |
| 2026-05-05 18:17 | 44.08700 | 1.24004 | 17558 ft | 383 kts | 356° |
| 2026-05-05 18:17 | 44.11384 | 1.23909 | 18234 ft | 388 kts | 356° |
| 2026-05-05 18:18 | 44.14099 | 1.23818 | 18816 ft | 392 kts | 356° |
| 2026-05-05 18:18 | 44.16842 | 1.23727 | 19408 ft | 397 kts | 356° |
| 2026-05-05 18:18 | 44.19616 | 1.23634 | 20014 ft | 401 kts | 357° |
| 2026-05-05 18:18 | 44.22420 | 1.23539 | 20620 ft | 405 kts | 357° |
| 2026-05-05 18:19 | 44.25255 | 1.23442 | 21206 ft | 409 kts | 357° |
| 2026-05-05 18:19 | 44.28119 | 1.23344 | 21795 ft | 414 kts | 357° |
| 2026-05-05 18:19 | 44.30066 | 1.23277 | 22189 ft | 417 kts | 357° |
| 2026-05-05 18:19 | 44.32987 | 1.23180 | 22748 ft | 421 kts | 357° |
| 2026-05-05 18:20 | 44.35932 | 1.23081 | 23297 ft | 425 kts | 357° |
| 2026-05-05 18:20 | 44.38866 | 1.22979 | 23777 ft | 429 kts | 357° |
| 2026-05-05 18:20 | 44.41895 | 1.22873 | 24248 ft | 432 kts | 357° |
| 2026-05-05 18:20 | 44.44914 | 1.22715 | 24715 ft | 435 kts | 353° |
| 2026-05-05 18:21 | 44.47899 | 1.22029 | 25159 ft | 435 kts | 344° |
| 2026-05-05 18:21 | 44.50826 | 1.20894 | 25610 ft | 438 kts | 342° |
| 2026-05-05 18:21 | 44.53765 | 1.19743 | 26057 ft | 440 kts | 342° |
| 2026-05-05 18:21 | 44.56724 | 1.18590 | 26504 ft | 443 kts | 342° |
| 2026-05-05 18:22 | 44.59707 | 1.17431 | 26952 ft | 446 kts | 342° |
| 2026-05-05 18:22 | 44.62708 | 1.16268 | 27384 ft | 449 kts | 342° |
| 2026-05-05 18:22 | 44.65727 | 1.15095 | 27818 ft | 452 kts | 342° |
| 2026-05-05 18:22 | 44.68764 | 1.13909 | 28252 ft | 454 kts | 342° |
| 2026-05-05 18:23 | 44.71817 | 1.12716 | 28672 ft | 457 kts | 342° |
| 2026-05-05 18:23 | 44.74895 | 1.11512 | 29078 ft | 460 kts | 342° |
| 2026-05-05 18:23 | 44.77943 | 1.10312 | 29476 ft | 462 kts | 342° |
| 2026-05-05 18:23 | 44.81086 | 1.09071 | 29871 ft | 465 kts | 342° |
| 2026-05-05 18:24 | 44.84166 | 1.07854 | 30191 ft | 467 kts | 342° |
| 2026-05-05 18:24 | 44.87342 | 1.06602 | 30510 ft | 469 kts | 342° |
| 2026-05-05 18:24 | 44.90456 | 1.05377 | 30817 ft | 471 kts | 342° |
| 2026-05-05 18:24 | 44.93666 | 1.04111 | 31124 ft | 473 kts | 342° |
| 2026-05-05 18:25 | 44.96842 | 1.02853 | 31482 ft | 474 kts | 342° |
| 2026-05-05 18:25 | 44.98940 | 1.02022 | 31773 ft | 473 kts | 342° |
| 2026-05-05 18:25 | 45.03170 | 1.00347 | 32338 ft | 472 kts | 342° |
| 2026-05-05 18:25 | 45.06288 | 0.99116 | 32731 ft | 471 kts | 342° |
| 2026-05-05 18:26 | 45.09451 | 0.97862 | 33133 ft | 471 kts | 342° |
| 2026-05-05 18:26 | 45.12603 | 0.96630 | 33532 ft | 470 kts | 343° |
| 2026-05-05 18:26 | 45.15784 | 0.95529 | 33869 ft | 471 kts | 346° |
| 2026-05-05 18:27 | 45.22203 | 0.93672 | 33921 ft | 464 kts | 348° |
| 2026-05-05 18:27 | 45.28494 | 0.91961 | 33923 ft | 463 kts | 347° |
| 2026-05-05 18:28 | 45.37950 | 0.89199 | 33928 ft | 462 kts | 347° |
| 2026-05-05 18:28 | 45.44239 | 0.87281 | 33931 ft | 462 kts | 347° |
| 2026-05-05 18:29 | 45.50533 | 0.85375 | 33929 ft | 462 kts | 347° |
| 2026-05-05 18:29 | 45.56817 | 0.83492 | 33924 ft | 462 kts | 347° |
| 2026-05-05 18:30 | 45.63109 | 0.81607 | 33919 ft | 462 kts | 347° |
| 2026-05-05 18:30 | 45.69395 | 0.79716 | 33916 ft | 461 kts | 347° |
| 2026-05-05 18:31 | 45.75674 | 0.77821 | 33910 ft | 462 kts | 347° |
| 2026-05-05 18:31 | 45.81962 | 0.75904 | 33906 ft | 462 kts | 347° |
| 2026-05-05 18:32 | 45.88253 | 0.73987 | 33908 ft | 462 kts | 347° |
| 2026-05-05 18:32 | 45.94541 | 0.72074 | 33905 ft | 462 kts | 347° |
| 2026-05-05 18:33 | 46.00835 | 0.70168 | 33901 ft | 462 kts | 347° |
| 2026-05-05 18:33 | 46.07126 | 0.68249 | 33905 ft | 462 kts | 347° |
| 2026-05-05 18:34 | 46.13403 | 0.66311 | 33908 ft | 462 kts | 347° |
| 2026-05-05 18:34 | 46.19679 | 0.64374 | 33910 ft | 461 kts | 347° |
| 2026-05-05 18:35 | 46.25953 | 0.62443 | 33908 ft | 460 kts | 347° |
| 2026-05-05 18:35 | 46.32213 | 0.60513 | 33901 ft | 460 kts | 347° |
| 2026-05-05 18:36 | 46.38466 | 0.58583 | 33896 ft | 459 kts | 347° |
| 2026-05-05 18:36 | 46.44707 | 0.56644 | 33894 ft | 459 kts | 347° |
| 2026-05-05 18:37 | 46.50946 | 0.54695 | 33893 ft | 459 kts | 347° |
| 2026-05-05 18:37 | 46.57274 | 0.53856 | 33890 ft | 458 kts | 4° |
| 2026-05-05 18:38 | 46.63525 | 0.55520 | 33885 ft | 457 kts | 13° |
| 2026-05-05 18:38 | 46.69726 | 0.57561 | 33884 ft | 457 kts | 13° |
| 2026-05-05 18:39 | 46.75926 | 0.59598 | 33881 ft | 457 kts | 13° |
| 2026-05-05 18:39 | 46.82116 | 0.61648 | 33878 ft | 456 kts | 13° |
| 2026-05-05 18:40 | 46.88304 | 0.63705 | 33868 ft | 456 kts | 13° |
| 2026-05-05 18:40 | 46.94483 | 0.65760 | 33870 ft | 455 kts | 13° |
| 2026-05-05 18:41 | 47.00657 | 0.67818 | 33871 ft | 455 kts | 13° |
| 2026-05-05 18:41 | 47.06891 | 0.69412 | 33868 ft | 455 kts | 4° |
| 2026-05-05 18:42 | 47.13207 | 0.70066 | 33880 ft | 455 kts | 5° |
| 2026-05-05 18:42 | 47.19535 | 0.70718 | 33884 ft | 455 kts | 5° |
| 2026-05-05 18:43 | 47.25846 | 0.71368 | 33896 ft | 454 kts | 5° |
| 2026-05-05 18:43 | 47.32152 | 0.72020 | 33903 ft | 453 kts | 5° |
| 2026-05-05 18:44 | 47.38432 | 0.72686 | 33908 ft | 452 kts | 5° |
| 2026-05-05 18:44 | 47.44701 | 0.73342 | 33909 ft | 451 kts | 5° |
| 2026-05-05 18:45 | 47.50896 | 0.74545 | 33906 ft | 448 kts | 17° |
| 2026-05-05 18:45 | 47.56797 | 0.77421 | 33895 ft | 446 kts | 20° |
| 2026-05-05 18:46 | 47.62682 | 0.80325 | 33883 ft | 446 kts | 19° |
| 2026-05-05 18:46 | 47.68566 | 0.83221 | 33877 ft | 445 kts | 20° |
| 2026-05-05 18:47 | 47.74447 | 0.86120 | 33868 ft | 445 kts | 20° |
| 2026-05-05 18:47 | 47.80273 | 0.89009 | 33861 ft | 445 kts | 20° |
| 2026-05-05 18:48 | 47.86143 | 0.91930 | 33858 ft | 445 kts | 20° |
| 2026-05-05 18:48 | 47.92002 | 0.94876 | 33852 ft | 444 kts | 20° |
| 2026-05-05 18:49 | 47.97860 | 0.97859 | 33851 ft | 444 kts | 20° |
| 2026-05-05 18:49 | 48.03705 | 1.00835 | 33850 ft | 444 kts | 20° |
| 2026-05-05 18:50 | 48.09543 | 1.03802 | 33848 ft | 443 kts | 20° |
| 2026-05-05 18:50 | 48.15389 | 1.06776 | 33858 ft | 443 kts | 20° |
| 2026-05-05 18:51 | 48.21228 | 1.09756 | 33848 ft | 443 kts | 21° |
| 2026-05-05 18:51 | 48.27056 | 1.12731 | 33847 ft | 442 kts | 21° |
| 2026-05-05 18:52 | 48.32881 | 1.15697 | 33851 ft | 442 kts | 21° |
| 2026-05-05 18:52 | 48.38698 | 1.18670 | 33847 ft | 441 kts | 21° |
| 2026-05-05 18:53 | 48.44511 | 1.21656 | 33839 ft | 441 kts | 21° |
| 2026-05-05 18:53 | 48.50318 | 1.24644 | 33836 ft | 441 kts | 21° |
| 2026-05-05 18:54 | 48.56131 | 1.27630 | 33839 ft | 441 kts | 21° |
| 2026-05-05 18:54 | 48.61950 | 1.30583 | 33829 ft | 441 kts | 20° |
| 2026-05-05 18:55 | 48.67788 | 1.33506 | 33837 ft | 442 kts | 20° |
| 2026-05-05 18:55 | 48.73621 | 1.36434 | 33837 ft | 442 kts | 21° |
| 2026-05-05 18:56 | 48.79456 | 1.39392 | 33836 ft | 442 kts | 21° |
| 2026-05-05 18:56 | 48.85282 | 1.42351 | 33836 ft | 442 kts | 21° |
| 2026-05-05 18:57 | 48.91120 | 1.45330 | 33843 ft | 442 kts | 21° |
| 2026-05-05 18:57 | 48.96968 | 1.48276 | 33846 ft | 443 kts | 18° |
| 2026-05-05 18:58 | 49.03063 | 1.49907 | 33843 ft | 446 kts | 11° |
| 2026-05-05 18:58 | 49.09216 | 1.51335 | 33847 ft | 445 kts | 11° |
| 2026-05-05 18:59 | 49.14298 | 1.52514 | 33848 ft | 445 kts | 11° |
| 2026-05-05 18:59 | 49.21413 | 1.54234 | 33848 ft | 444 kts | 15° |
| 2026-05-05 19:00 | 49.27074 | 1.57674 | 33848 ft | 435 kts | 34° |
| 2026-05-05 19:00 | 49.31020 | 1.62444 | 33844 ft | 430 kts | 47° |
| 2026-05-05 19:01 | 49.35343 | 1.68776 | 33840 ft | 430 kts | 46° |
| 2026-05-05 19:01 | 49.39689 | 1.75090 | 33839 ft | 431 kts | 46° |
| 2026-05-05 19:02 | 49.44032 | 1.81439 | 33851 ft | 431 kts | 46° |
| 2026-05-05 19:02 | 49.48361 | 1.87838 | 33842 ft | 432 kts | 47° |
| 2026-05-05 19:03 | 49.52701 | 1.94255 | 33841 ft | 433 kts | 46° |
| 2026-05-05 19:03 | 49.57043 | 2.00685 | 33842 ft | 434 kts | 47° |
| 2026-05-05 19:04 | 49.61397 | 2.07140 | 33844 ft | 434 kts | 47° |
| 2026-05-05 19:04 | 49.65756 | 2.13609 | 33848 ft | 435 kts | 47° |
| 2026-05-05 19:05 | 49.70107 | 2.20109 | 33851 ft | 435 kts | 47° |
| 2026-05-05 19:05 | 49.74452 | 2.26617 | 33849 ft | 435 kts | 47° |
| 2026-05-05 19:06 | 49.78798 | 2.33128 | 33849 ft | 435 kts | 47° |
| 2026-05-05 19:06 | 49.80978 | 2.36399 | 33645 ft | 436 kts | 47° |
| 2026-05-05 19:06 | 49.83153 | 2.39670 | 33357 ft | 436 kts | 47° |
| 2026-05-05 19:07 | 49.85329 | 2.42951 | 33081 ft | 436 kts | 47° |
| 2026-05-05 19:07 | 49.87504 | 2.46240 | 32806 ft | 437 kts | 47° |
| 2026-05-05 19:07 | 49.89678 | 2.49525 | 32536 ft | 438 kts | 47° |
| 2026-05-05 19:07 | 49.91858 | 2.52826 | 32271 ft | 438 kts | 47° |
| 2026-05-05 19:08 | 49.94040 | 2.56137 | 32004 ft | 439 kts | 47° |
| 2026-05-05 19:08 | 49.96220 | 2.59453 | 31741 ft | 439 kts | 47° |
| 2026-05-05 19:08 | 49.98403 | 2.62777 | 31483 ft | 440 kts | 47° |
| 2026-05-05 19:08 | 50.00588 | 2.66102 | 31225 ft | 441 kts | 47° |
| 2026-05-05 19:09 | 50.02785 | 2.69447 | 30969 ft | 440 kts | 47° |
| 2026-05-05 19:09 | 50.04967 | 2.72774 | 30715 ft | 439 kts | 47° |
| 2026-05-05 19:09 | 50.07140 | 2.76094 | 30465 ft | 438 kts | 46° |
| 2026-05-05 19:09 | 50.09314 | 2.79414 | 30213 ft | 436 kts | 46° |
| 2026-05-05 19:10 | 50.11464 | 2.82702 | 29750 ft | 432 kts | 46° |
| 2026-05-05 19:10 | 50.13602 | 2.85975 | 29103 ft | 428 kts | 46° |
| 2026-05-05 19:10 | 50.15706 | 2.89198 | 28515 ft | 423 kts | 46° |
| 2026-05-05 19:10 | 50.17794 | 2.92405 | 27926 ft | 418 kts | 46° |
| 2026-05-05 19:11 | 50.19853 | 2.95576 | 27340 ft | 414 kts | 46° |
| 2026-05-05 19:11 | 50.21891 | 2.98722 | 26767 ft | 410 kts | 46° |
| 2026-05-05 19:11 | 50.23904 | 3.01838 | 26201 ft | 406 kts | 46° |
| 2026-05-05 19:11 | 50.25902 | 3.04931 | 25640 ft | 403 kts | 46° |
| 2026-05-05 19:12 | 50.27889 | 3.08006 | 25104 ft | 401 kts | 46° |
| 2026-05-05 19:12 | 50.29864 | 3.11063 | 24563 ft | 398 kts | 46° |
| 2026-05-05 19:12 | 50.31822 | 3.14100 | 24046 ft | 396 kts | 46° |
| 2026-05-05 19:12 | 50.33775 | 3.17138 | 23542 ft | 394 kts | 45° |
| 2026-05-05 19:13 | 50.35714 | 3.20162 | 22999 ft | 392 kts | 45° |
| 2026-05-05 19:13 | 50.37636 | 3.23159 | 22532 ft | 388 kts | 45° |
| 2026-05-05 19:13 | 50.39542 | 3.26125 | 22093 ft | 384 kts | 45° |
| 2026-05-05 19:13 | 50.41423 | 3.29058 | 21709 ft | 383 kts | 46° |
| 2026-05-05 19:14 | 50.43323 | 3.32026 | 21245 ft | 386 kts | 46° |
| 2026-05-05 19:14 | 50.45226 | 3.35002 | 20778 ft | 386 kts | 46° |
| 2026-05-05 19:14 | 50.47122 | 3.37971 | 20312 ft | 385 kts | 46° |
| 2026-05-05 19:14 | 50.49008 | 3.40930 | 19853 ft | 383 kts | 46° |
| 2026-05-05 19:15 | 50.50890 | 3.43881 | 19395 ft | 381 kts | 46° |
| 2026-05-05 19:15 | 50.52763 | 3.46820 | 18937 ft | 380 kts | 46° |
| 2026-05-05 19:15 | 50.54665 | 3.49682 | 18479 ft | 378 kts | 41° |
| 2026-05-05 19:15 | 50.56796 | 3.52095 | 18005 ft | 377 kts | 35° |
| 2026-05-05 19:16 | 50.58949 | 3.54432 | 17530 ft | 374 kts | 36° |
| 2026-05-05 19:16 | 50.61075 | 3.56765 | 17083 ft | 370 kts | 36° |
| 2026-05-05 19:16 | 50.63169 | 3.59074 | 16646 ft | 366 kts | 37° |
| 2026-05-05 19:16 | 50.65244 | 3.61365 | 16204 ft | 362 kts | 36° |
| 2026-05-05 19:17 | 50.67292 | 3.63631 | 15770 ft | 357 kts | 37° |
| 2026-05-05 19:17 | 50.69314 | 3.65871 | 15347 ft | 353 kts | 36° |
| 2026-05-05 19:17 | 50.71309 | 3.68082 | 14926 ft | 349 kts | 36° |
| 2026-05-05 19:17 | 50.73285 | 3.70273 | 14508 ft | 345 kts | 36° |
| 2026-05-05 19:18 | 50.75239 | 3.72433 | 14097 ft | 340 kts | 36° |
| 2026-05-05 19:18 | 50.77169 | 3.74566 | 13686 ft | 336 kts | 36° |
| 2026-05-05 19:18 | 50.79073 | 3.76677 | 13255 ft | 332 kts | 36° |
| 2026-05-05 19:18 | 50.80953 | 3.78770 | 12857 ft | 329 kts | 36° |
| 2026-05-05 19:19 | 50.82815 | 3.80849 | 12456 ft | 327 kts | 36° |
| 2026-05-05 19:19 | 50.84669 | 3.82921 | 12065 ft | 326 kts | 36° |
| 2026-05-05 19:19 | 50.86502 | 3.85014 | 11677 ft | 324 kts | 40° |
| 2026-05-05 19:19 | 50.88078 | 3.87542 | 11283 ft | 322 kts | 52° |
| 2026-05-05 19:20 | 50.89300 | 3.90496 | 10893 ft | 322 kts | 59° |
| 2026-05-05 19:20 | 50.90462 | 3.93523 | 10490 ft | 321 kts | 58° |
| 2026-05-05 19:20 | 50.91544 | 3.96570 | 10283 ft | 311 kts | 66° |
| 2026-05-05 19:20 | 50.92124 | 3.99783 | 10162 ft | 298 kts | 82° |
| 2026-05-05 19:21 | 50.92165 | 4.03015 | 9974 ft | 290 kts | 96° |
| 2026-05-05 19:21 | 50.91785 | 4.06109 | 9899 ft | 288 kts | 102° |
| 2026-05-05 19:21 | 50.91341 | 4.09139 | 9537 ft | 287 kts | 108° |
| 2026-05-05 19:21 | 50.90421 | 4.11920 | 9137 ft | 285 kts | 127° |
| 2026-05-05 19:22 | 50.88981 | 4.14050 | 8735 ft | 285 kts | 146° |
| 2026-05-05 19:22 | 50.87179 | 4.15303 | 8357 ft | 285 kts | 164° |
| 2026-05-05 19:22 | 50.85238 | 4.16049 | 7975 ft | 286 kts | 165° |
| 2026-05-05 19:22 | 50.83314 | 4.16801 | 7589 ft | 284 kts | 164° |
| 2026-05-05 19:23 | 50.81398 | 4.17557 | 7202 ft | 283 kts | 164° |
| 2026-05-05 19:23 | 50.79494 | 4.18309 | 6824 ft | 282 kts | 164° |
| 2026-05-05 19:23 | 50.77593 | 4.19060 | 6441 ft | 280 kts | 164° |
| 2026-05-05 19:23 | 50.75709 | 4.19804 | 6046 ft | 279 kts | 164° |
| 2026-05-05 19:24 | 50.73830 | 4.20543 | 5680 ft | 276 kts | 164° |
| 2026-05-05 19:24 | 50.72008 | 4.21257 | 5540 ft | 263 kts | 164° |
| 2026-05-05 19:24 | 50.70361 | 4.22243 | 5401 ft | 247 kts | 142° |
| 2026-05-05 19:24 | 50.69302 | 4.24221 | 5192 ft | 231 kts | 110° |
| 2026-05-05 19:25 | 50.69028 | 4.26688 | 4743 ft | 231 kts | 81° |
| 2026-05-05 19:25 | 50.69394 | 4.29085 | 4447 ft | 225 kts | 73° |
| 2026-05-05 19:25 | 50.69791 | 4.31529 | 3889 ft | 230 kts | 73° |
| 2026-05-05 19:25 | 50.70166 | 4.33915 | 3685 ft | 215 kts | 73° |
| 2026-05-05 19:26 | 50.70506 | 4.36101 | 3621 ft | 196 kts | 73° |
| 2026-05-05 19:26 | 50.70820 | 4.38117 | 3545 ft | 184 kts | 73° |
| 2026-05-05 19:26 | 50.71167 | 4.39989 | 3470 ft | 177 kts | 63° |
| 2026-05-05 19:26 | 50.71864 | 4.41575 | 3382 ft | 174 kts | 43° |
| 2026-05-05 19:27 | 50.72847 | 4.42637 | 3188 ft | 174 kts | 24° |
| 2026-05-05 19:27 | 50.74027 | 4.43180 | 2973 ft | 174 kts | 17° |
| 2026-05-05 19:27 | 50.75191 | 4.43652 | 2771 ft | 172 kts | 16° |
| 2026-05-05 19:27 | 50.76327 | 4.44113 | 2651 ft | 169 kts | 17° |
| 2026-05-05 19:28 | 50.77489 | 4.44585 | 2516 ft | 170 kts | 17° |
| 2026-05-05 19:28 | 50.78615 | 4.45042 | 2316 ft | 168 kts | 17° |
| 2026-05-05 19:28 | 50.79727 | 4.45492 | 2121 ft | 162 kts | 17° |
| 2026-05-05 19:28 | 50.80772 | 4.45916 | 1903 ft | 145 kts | 16° |
| 2026-05-05 19:29 | 50.81686 | 4.46287 | 1714 ft | 129 kts | 16° |
| 2026-05-05 19:29 | 50.82539 | 4.46635 | 1532 ft | 124 kts | 15° |
| 2026-05-05 19:29 | 50.83364 | 4.46972 | 1369 ft | 122 kts | 17° |
| 2026-05-05 19:29 | 50.84184 | 4.47305 | 1193 ft | 121 kts | 15° |
| 2026-05-05 19:30 | 50.85004 | 4.47639 | 1007 ft | 122 kts | 15° |
| 2026-05-05 19:30 | 50.85828 | 4.47971 | 840 ft | 122 kts | 14° |
| 2026-05-05 19:30 | 50.86648 | 4.48302 | 610 ft | 122 kts | 15° |
| 2026-05-05 19:30 | 50.87464 | 4.48638 | 479 ft | 120 kts | 15° |
| 2026-05-05 19:31 | 50.88282 | 4.48986 | 319 ft | 122 kts | 14° |
| 2026-05-05 19:31 | 50.89086 | 4.49315 | 178 ft | 113 kts | 13° |
| 2026-05-05 19:31 | 50.89670 | 4.49541 | 152 ft | 48 kts | 14° |
| 2026-05-05 19:31 | 50.89956 | 4.49656 | 135 ft | 40 kts | 14° |
| 2026-05-05 19:32 | 50.90162 | 4.49714 | 129 ft | 21 kts | 354° |
| 2026-05-05 19:32 | 50.90300 | 4.49672 | 127 ft | 17 kts | 344° |
| 2026-05-05 19:32 | 50.90391 | 4.49620 | 122 ft | 11 kts | 318° |
| 2026-05-05 19:32 | 50.90439 | 4.49540 | 121 ft | 8 kts | 313° |
| 2026-05-05 19:33 | 50.90439 | 4.49467 | 124 ft | 6 kts | 250° |
| 2026-05-05 19:33 | 50.90419 | 4.49397 | 121 ft | 8 kts | 246° |
| 2026-05-05 19:33 | 50.90418 | 4.49305 | 122 ft | 10 kts | 306° |
| 2026-05-05 19:33 | 50.90488 | 4.49248 | 123 ft | 13 kts | 335° |
| 2026-05-05 19:34 | 50.90568 | 4.49187 | 123 ft | 14 kts | 334° |
| 2026-05-05 19:34 | 50.90640 | 4.49104 | 118 ft | 12 kts | 279° |
| 2026-05-05 19:34 | 50.90621 | 4.48996 | 118 ft | 9 kts | 243° |
| 2026-05-05 19:35 | 50.90557 | 4.48857 | 121 ft | 6 kts | 163° |
| 2026-05-05 19:35 | 50.90517 | 4.48883 | 120 ft | 6 kts | 155° |
| 2026-05-05 19:35 | 50.90499 | 4.48896 | 120 ft | 2 kts | 155° |
| 2026-05-05 19:35 | 50.90491 | 4.48902 | 121 ft | 1 kts | 155° |
| 2026-05-05 19:36 | 50.90490 | 4.48902 | 121 ft | 0 kts | 155° |